Bookmark and Share
Track history (hours):
 

Birch 4

Last reported at 2014-Apr-24 03:30 UTC. Time now 2014-Apr-24 04:23 UTC.
Position N 39°16' W 076°34'.

Length 160 m; draft 7.7 m.

Type: Cargo ship. MMSI: 477111100.

NotesDate/timePositionNaut miles runAvg speedWind from/ knotsBaromVisibWave heightAir tempDewpointWater temp
2014-Apr-24 03:30N 39°16' W 076°34'0 0.0
2014-Apr-24 02:33N 39°16' W 076°34'0 0.0
2014-Apr-24 01:33N 39°16' W 076°34'0 0.0
2014-Apr-24 00:30N 39°16' W 076°34'0 0.0
2014-Apr-23 23:30N 39°16' W 076°34'0 0.0
2014-Apr-23 22:33N 39°16' W 076°34'0 0.0
2014-Apr-23 21:30N 39°16' W 076°34'0 0.0
2014-Apr-23 20:33N 39°16' W 076°34'0 0.0
2014-Apr-23 19:33N 39°16' W 076°34'0 0.0
2014-Apr-23 18:33N 39°16' W 076°34'2 2.1
2014-Apr-23 17:34N 39°14' W 076°32'0 0.0
2014-Apr-23 16:32N 39°14' W 076°32'0 0.0
2014-Apr-23 15:31N 39°14' W 076°32'0 0.0
2014-Apr-23 14:32N 39°14' W 076°32'0 0.0
2014-Apr-23 13:31N 39°14' W 076°32'0 0.0
2014-Apr-23 12:31N 39°14' W 076°32'0 0.0
2014-Apr-23 11:31N 39°14' W 076°32'0 0.0
2014-Apr-23 10:32N 39°14' W 076°32'0 0.0
2014-Apr-23 09:32N 39°14' W 076°32'0 0.0
2014-Apr-23 08:32N 39°14' W 076°32'0 0.0
2014-Apr-23 07:32N 39°14' W 076°32'0 0.0
2014-Apr-23 06:31N 39°14' W 076°32'0 0.0
2014-Apr-23 05:31N 39°14' W 076°32'0 0.0
2014-Apr-23 04:32N 39°14' W 076°32'0 0.0
2014-Apr-23 03:32N 39°14' W 076°32'0 0.0
2014-Apr-23 02:32N 39°14' W 076°32'0 0.0
2014-Apr-23 01:31N 39°14' W 076°32'0 0.0
2014-Apr-23 00:32N 39°14' W 076°32'0 0.0
2014-Apr-22 23:31N 39°14' W 076°32'0 0.0
2014-Apr-22 22:32N 39°14' W 076°32'0 0.0
2014-Apr-22 21:31N 39°14' W 076°32'0 0.0
2014-Apr-22 20:31N 39°14' W 076°32'0 0.0
2014-Apr-22 19:31N 39°14' W 076°32'0 0.2
2014-Apr-22 18:28N 39°14' W 076°33'0 0.0
2014-Apr-22 17:32N 39°14' W 076°33'0 0.0
2014-Apr-22 16:31N 39°14' W 076°33'0 0.0
2014-Apr-22 15:31N 39°14' W 076°33'0 0.1
2014-Apr-22 14:32N 39°14' W 076°33'0 0.1
2014-Apr-22 13:31N 39°14' W 076°32'0 0.1
2014-Apr-22 12:31N 39°14' W 076°32'0 0.1
2014-Apr-22 11:31N 39°14' W 076°32'0 0.0
2014-Apr-22 10:29N 39°14' W 076°32'4 4.3
2014-Apr-22 09:33N 39°11' W 076°28'10 9.8
2014-Apr-22 08:33N 39°03' W 076°23'6 5.9
2014-Apr-22 07:32N 38°57' W 076°25'0 0.1
2014-Apr-22 06:20N 38°57' W 076°24'0 0.0
2014-Apr-22 05:32N 38°57' W 076°24'0 0.0
2014-Apr-22 04:32N 38°57' W 076°24'0 0.0
2014-Apr-22 03:32N 38°57' W 076°24'0 0.1
2014-Apr-22 01:32N 38°57' W 076°25'0 0.1
2014-Apr-22 00:29N 38°57' W 076°25'0 0.0
2014-Apr-21 23:32N 38°57' W 076°25'0 0.0
2014-Apr-21 22:32N 38°57' W 076°24'0 0.0
2014-Apr-21 21:32N 38°57' W 076°24'0 0.0
2014-Apr-21 20:32N 38°57' W 076°24'0 0.0
2014-Apr-21 19:32N 38°57' W 076°24'0 0.0
2014-Apr-21 18:32N 38°57' W 076°24'0 0.1
2014-Apr-21 17:32N 38°57' W 076°25'0 0.1
2014-Apr-21 15:32N 38°57' W 076°24'0 0.0
2014-Apr-21 14:32N 38°57' W 076°24'0 0.0
2014-Apr-21 13:23N 38°57' W 076°24'0 0.1
2014-Apr-21 12:32N 38°57' W 076°25'0 0.1
2014-Apr-21 11:32N 38°57' W 076°25'0 0.0
2014-Apr-21 10:32N 38°57' W 076°25'0 0.0
2014-Apr-21 09:32N 38°57' W 076°24'0 0.0
2014-Apr-21 08:32N 38°57' W 076°24'0 0.0
2014-Apr-21 07:32N 38°57' W 076°24'0 0.0
2014-Apr-21 06:32N 38°57' W 076°24'0 0.0
2014-Apr-21 05:32N 38°57' W 076°24'0 0.0
2014-Apr-21 04:32N 38°57' W 076°25'0 0.0
2014-Apr-21 03:32N 38°57' W 076°25'0 0.0
2014-Apr-21 02:32N 38°57' W 076°25'0 0.0
2014-Apr-21 01:32N 38°57' W 076°25'0 0.0
2014-Apr-21 00:32N 38°57' W 076°25'0 0.0
2014-Apr-20 23:32N 38°57' W 076°25'0 0.0
2014-Apr-20 22:32N 38°57' W 076°25'0 0.0
2014-Apr-20 21:32N 38°57' W 076°24'0 0.0
2014-Apr-20 20:32N 38°57' W 076°25'0 0.0
2014-Apr-20 19:32N 38°57' W 076°24'0 0.0
2014-Apr-20 18:32N 38°57' W 076°24'0 0.0
2014-Apr-20 17:32N 38°57' W 076°24'0 0.0
2014-Apr-20 16:32N 38°57' W 076°24'0 0.1
2014-Apr-20 15:32N 38°57' W 076°25'0 0.0
2014-Apr-20 14:32N 38°57' W 076°25'0 0.0
2014-Apr-20 13:32N 38°57' W 076°25'0 0.0
2014-Apr-20 12:32N 38°57' W 076°25'0 0.0
2014-Apr-20 11:32N 38°57' W 076°25'0 0.1
2014-Apr-20 10:32N 38°57' W 076°25'0 0.0
2014-Apr-20 09:32N 38°57' W 076°25'0 0.0
2014-Apr-20 08:32N 38°57' W 076°24'0 0.0
2014-Apr-20 07:32N 38°57' W 076°24'0 0.0
2014-Apr-20 06:32N 38°57' W 076°24'0 0.0
2014-Apr-20 05:32N 38°57' W 076°25'0 0.0
2014-Apr-20 04:32N 38°57' W 076°25'0 0.0
2014-Apr-20 03:32N 38°57' W 076°25'0 0.0
2014-Apr-20 02:32N 38°57' W 076°25'0 0.0
2014-Apr-20 01:32N 38°57' W 076°25'0 0.0
2014-Apr-20 00:32N 38°57' W 076°25'1 0.5
2014-Apr-19 23:33N 38°56' W 076°25'12711.1
2014-Apr-19 12:12N 36°52' W 075°51'  

Dump ship's entire track history

sailing weather and tide predictions

Birch 4 — VREG7 — position and weather